createdAt,value
2022-09-23T00:01:46.479Z,3.03
2022-09-23T00:04:14.642Z,2.80
2022-09-23T00:06:45.308Z,2.92
2022-09-23T00:09:13.502Z,3.38
2022-09-23T00:11:41.576Z,3.08
2022-09-23T00:14:13.021Z,3.00
2022-09-23T00:16:43.944Z,3.10
2022-09-23T00:19:14.906Z,2.65
2022-09-23T00:21:43.398Z,2.92
2022-09-23T00:24:14.241Z,2.58
2022-09-23T00:26:42.365Z,3.10
2022-09-23T00:29:10.462Z,3.25
2022-09-23T00:31:38.492Z,3.20
2022-09-23T00:34:11.443Z,3.28
2022-09-23T00:36:39.543Z,2.85
2022-09-23T00:39:07.685Z,3.30
2022-09-23T00:41:41.321Z,3.47
2022-09-23T00:44:46.216Z,3.20
2022-09-23T00:50:22.768Z,3.28
2022-09-23T00:52:53.961Z,3.15
2022-09-23T00:55:31.617Z,3.03
2022-09-23T00:58:03.968Z,2.97
2022-09-23T01:00:32.236Z,3.22
2022-09-23T01:03:01.819Z,3.10
2022-09-23T01:05:29.900Z,3.47
2022-09-23T01:08:01.915Z,3.33
2022-09-23T01:10:44.009Z,3.08
2022-09-23T01:13:26.201Z,3.65
2022-09-23T01:16:26.334Z,3.08
2022-09-23T01:18:58.289Z,4.78
2022-09-23T01:21:44.407Z,4.05
2022-09-23T01:24:38.207Z,3.40
2022-09-23T01:27:42.776Z,4.27
2022-09-23T01:30:27.898Z,3.70
2022-09-23T01:32:58.840Z,3.63
2022-09-23T01:35:44.482Z,4.25
2022-09-23T01:38:25.797Z,4.40
2022-09-23T01:41:04.290Z,4.35
2022-09-23T01:43:46.624Z,4.40
2022-09-23T01:46:25.194Z,3.92
2022-09-23T01:49:00.585Z,4.10
2022-09-23T01:51:38.292Z,4.40
2022-09-23T01:54:31.288Z,3.83
2022-09-23T01:57:05.369Z,4.78
2022-09-23T02:02:14.604Z,4.30
2022-09-23T02:04:58.976Z,5.10
2022-09-23T02:10:27.715Z,4.32
2022-09-23T02:13:00.295Z,5.43
2022-09-23T02:15:36.009Z,4.60
2022-09-23T02:18:10.719Z,5.25
2022-09-23T02:20:41.592Z,4.93
2022-09-23T02:23:20.798Z,3.70
2022-09-23T02:25:51.891Z,6.07
2022-09-23T02:28:32.882Z,5.90
2022-09-23T02:31:12.969Z,6.07
2022-09-23T02:33:49.695Z,4.75
2022-09-23T02:36:27.179Z,4.70
2022-09-23T02:39:04.770Z,4.60
2022-09-23T02:41:47.336Z,5.45
2022-09-23T02:44:19.155Z,5.22
2022-09-23T02:46:50.627Z,5.80
2022-09-23T02:49:35.087Z,5.50
2022-09-23T02:54:35.720Z,5.78
2022-09-23T02:57:07.492Z,6.80
2022-09-23T02:59:39.773Z,6.70
2022-09-23T03:02:18.888Z,6.78
2022-09-23T03:05:05.803Z,6.78
2022-09-23T03:07:48.972Z,6.65
2022-09-23T03:10:19.680Z,7.38
2022-09-23T03:12:54.715Z,7.18
2022-09-23T03:15:37.230Z,6.82
2022-09-23T03:18:19.840Z,6.35
2022-09-23T03:21:03.215Z,7.03
2022-09-23T03:23:38.046Z,7.10
2022-09-23T03:26:16.976Z,7.07
2022-09-23T03:28:49.810Z,6.15
2022-09-23T03:31:20.462Z,6.78
2022-09-23T03:33:53.305Z,6.93
2022-09-23T03:36:32.745Z,7.47
2022-09-23T03:39:12.533Z,7.22
2022-09-23T03:41:48.672Z,6.53
2022-09-23T03:44:20.028Z,6.50
2022-09-23T03:46:50.634Z,7.18
2022-09-23T03:49:25.214Z,5.55
2022-09-23T03:51:53.299Z,5.28
2022-09-23T03:54:21.423Z,5.03
2022-09-23T03:56:49.454Z,5.50
2022-09-23T03:59:17.927Z,5.18
2022-09-23T04:01:46.098Z,5.40
2022-09-23T04:04:14.321Z,4.63
2022-09-23T04:06:42.422Z,5.38
2022-09-23T04:09:13.075Z,5.07
2022-09-23T04:11:43.604Z,4.65
2022-09-23T04:14:11.649Z,4.70
2022-09-23T04:16:39.867Z,5.63
2022-09-23T04:19:11.476Z,5.30
2022-09-23T04:21:44.057Z,5.47
2022-09-23T04:24:13.052Z,4.65
2022-09-23T04:26:41.191Z,5.28
2022-09-23T04:29:11.645Z,5.47
2022-09-23T04:31:42.365Z,5.63
2022-09-23T04:34:10.920Z,4.95
2022-09-23T04:36:39.052Z,5.18
2022-09-23T04:39:07.328Z,4.85
2022-09-23T04:41:35.509Z,5.22
2022-09-23T04:44:04.473Z,4.95
2022-09-23T04:46:32.713Z,5.32
2022-09-23T04:49:03.297Z,4.85
2022-09-23T04:51:31.335Z,4.57
2022-09-23T04:53:59.354Z,5.30
2022-09-23T04:56:29.958Z,5.50
2022-09-23T04:58:57.949Z,6.43
2022-09-23T05:01:28.865Z,6.35
2022-09-23T05:04:00.553Z,5.45
2022-09-23T05:06:29.180Z,5.22
2022-09-23T05:08:58.893Z,5.57
2022-09-23T05:11:27.441Z,4.72
2022-09-23T05:13:56.033Z,5.60
2022-09-23T05:16:27.989Z,4.90
2022-09-23T05:18:56.046Z,5.22
2022-09-23T05:21:25.629Z,5.70
2022-09-23T05:23:55.923Z,5.03
2022-09-23T05:26:28.434Z,4.90
2022-09-23T05:28:59.640Z,5.85
2022-09-23T05:31:29.538Z,4.63
2022-09-23T05:34:00.244Z,5.10
2022-09-23T05:36:32.133Z,5.63
2022-09-23T05:39:04.564Z,5.22
2022-09-23T05:41:33.399Z,5.53
2022-09-23T05:44:01.719Z,5.60
2022-09-23T05:46:33.959Z,5.72
2022-09-23T05:49:03.626Z,5.95
2022-09-23T05:51:35.421Z,7.18
2022-09-23T05:54:03.846Z,7.40
2022-09-23T05:56:38.276Z,6.00
2022-09-23T05:59:07.504Z,6.45
2022-09-23T06:01:38.924Z,6.22
2022-09-23T06:04:13.697Z,5.60
2022-09-23T06:06:45.370Z,7.55
2022-09-23T06:09:15.267Z,7.72
2022-09-23T06:11:45.975Z,7.60
2022-09-23T06:14:15.119Z,6.70
2022-09-23T06:16:43.194Z,5.53
2022-09-23T06:19:11.546Z,5.25
2022-09-23T06:21:40.612Z,5.13
2022-09-23T06:24:09.832Z,5.60
2022-09-23T06:26:41.144Z,6.00
2022-09-23T06:29:13.148Z,5.60
2022-09-23T06:31:43.832Z,4.72
2022-09-23T06:34:14.968Z,5.65
2022-09-23T06:36:45.914Z,4.82
2022-09-23T06:39:17.331Z,4.78
2022-09-23T06:41:45.915Z,4.90
2022-09-23T06:44:16.846Z,4.85
2022-09-23T06:46:44.858Z,4.82
2022-09-23T06:49:15.835Z,4.90
2022-09-23T06:51:43.879Z,5.30
2022-09-23T06:54:11.914Z,4.78
2022-09-23T06:56:40.351Z,4.50
2022-09-23T06:59:11.809Z,4.90
2022-09-23T07:01:40.108Z,4.72
2022-09-23T07:04:08.287Z,4.88
2022-09-23T07:06:39.034Z,4.00
2022-09-23T07:09:08.557Z,4.53
2022-09-23T07:11:36.607Z,5.40
2022-09-23T07:14:04.860Z,5.22
2022-09-23T07:16:32.981Z,5.95
2022-09-23T07:19:01.017Z,4.93
2022-09-23T07:21:29.186Z,4.38
2022-09-23T07:23:57.423Z,4.82
2022-09-23T07:26:26.060Z,4.85
2022-09-23T07:28:55.956Z,4.82
2022-09-23T07:31:37.211Z,4.97
2022-09-23T07:34:08.998Z,4.95
2022-09-23T07:36:37.019Z,4.97
2022-09-23T07:39:05.212Z,5.18
2022-09-23T07:41:34.715Z,5.28
2022-09-23T07:44:08.125Z,5.18
2022-09-23T07:46:36.952Z,4.85
2022-09-23T07:49:06.083Z,5.20
2022-09-23T07:51:37.587Z,5.28
2022-09-23T07:54:08.028Z,5.45
2022-09-23T07:56:36.936Z,5.90
2022-09-23T07:59:09.644Z,5.47
2022-09-23T08:01:42.813Z,5.03
2022-09-23T08:04:16.322Z,5.33
2022-09-23T08:06:58.370Z,5.47
2022-09-23T08:09:35.350Z,5.55
2022-09-23T08:12:03.497Z,4.90
2022-09-23T08:14:31.730Z,4.95
2022-09-23T08:16:59.829Z,5.68
2022-09-23T08:19:27.854Z,5.25
2022-09-23T08:21:55.910Z,5.38
2022-09-23T08:24:24.435Z,6.68
2022-09-23T08:26:55.921Z,5.47
2022-09-23T08:29:25.836Z,6.20
2022-09-23T08:31:54.803Z,5.68
2022-09-23T08:34:23.865Z,6.75
2022-09-23T08:36:51.935Z,5.97
2022-09-23T08:39:21.209Z,5.85
2022-09-23T08:41:58.843Z,5.70
2022-09-23T08:44:44.965Z,5.47
2022-09-23T08:47:32.087Z,5.20
2022-09-23T08:50:18.344Z,5.18
2022-09-23T08:52:52.218Z,5.75
2022-09-23T08:55:22.511Z,6.18
2022-09-23T08:58:23.881Z,5.47
2022-09-23T09:01:07.370Z,5.38
2022-09-23T09:03:52.793Z,5.43
2022-09-23T09:06:53.175Z,4.82
2022-09-23T09:09:46.872Z,5.32
2022-09-23T09:12:18.865Z,4.72
2022-09-23T09:15:03.885Z,5.65
2022-09-23T09:17:49.546Z,6.45
2022-09-23T09:20:43.882Z,6.95
2022-09-23T09:23:23.392Z,6.70
2022-09-23T09:25:53.976Z,6.35
2022-09-23T09:28:35.700Z,7.20
2022-09-23T09:31:25.504Z,6.97
2022-09-23T09:34:11.317Z,6.85
2022-09-23T09:36:45.483Z,6.82
2022-09-23T09:39:15.875Z,6.47
2022-09-23T09:41:51.854Z,6.45
2022-09-23T09:44:39.861Z,6.55
2022-09-23T09:47:44.532Z,6.32
2022-09-23T09:50:15.701Z,6.90
2022-09-23T09:52:43.699Z,6.38
2022-09-23T09:55:14.723Z,6.20
2022-09-23T09:57:51.850Z,6.40
2022-09-23T10:00:36.191Z,6.63
2022-09-23T10:05:46.425Z,6.28
2022-09-23T10:08:26.127Z,6.60
2022-09-23T10:10:59.888Z,6.47
2022-09-23T10:13:28.989Z,7.18
2022-09-23T10:15:59.245Z,6.97
2022-09-23T10:18:35.116Z,6.93
2022-09-23T10:21:10.731Z,6.28
2022-09-23T10:23:47.557Z,6.68
2022-09-23T10:26:16.637Z,6.78
2022-09-23T10:28:47.398Z,7.57
2022-09-23T10:31:22.582Z,6.75
2022-09-23T10:33:55.185Z,7.53
2022-09-23T10:36:23.242Z,8.07
2022-09-23T10:38:56.141Z,7.65
2022-09-23T10:41:50.016Z,7.70
2022-09-23T10:44:50.022Z,7.10
2022-09-23T10:47:46.717Z,7.18
2022-09-23T10:50:57.566Z,7.05
2022-09-23T10:53:44.986Z,6.53
2022-09-23T10:56:39.680Z,6.80
2022-09-23T11:02:04.345Z,7.75
2022-09-23T11:04:56.243Z,7.10
2022-09-23T11:07:24.246Z,6.80
2022-09-23T11:10:45.908Z,6.70
2022-09-23T11:13:26.235Z,7.20
2022-09-23T11:16:02.903Z,6.45
2022-09-23T11:18:33.777Z,7.13
2022-09-23T11:21:39.253Z,7.28
2022-09-23T11:24:24.876Z,6.65
2022-09-23T11:27:07.980Z,7.03
2022-09-23T11:29:48.434Z,6.35
2022-09-23T11:32:37.381Z,6.90
2022-09-23T11:35:29.892Z,8.48
2022-09-23T11:38:13.183Z,7.40
2022-09-23T11:40:45.545Z,7.00
2022-09-23T11:43:22.679Z,7.22
2022-09-23T11:46:28.441Z,6.85
2022-09-23T11:49:02.539Z,6.90
2022-09-23T11:54:17.245Z,7.60
2022-09-23T11:56:54.257Z,7.88
2022-09-23T11:59:44.084Z,8.48
2022-09-23T12:02:25.665Z,7.22
2022-09-23T12:05:05.268Z,7.65
2022-09-23T12:07:47.945Z,7.53
2022-09-23T12:10:18.827Z,7.10
2022-09-23T12:13:00.585Z,7.38
2022-09-23T12:15:57.837Z,6.80
2022-09-23T12:18:54.677Z,9.00
2022-09-23T12:21:52.787Z,7.53
2022-09-23T12:24:41.887Z,7.38
2022-09-23T12:27:18.994Z,7.13
2022-09-23T12:29:53.553Z,7.47
2022-09-23T12:32:22.057Z,6.75
2022-09-23T12:34:54.518Z,6.22
2022-09-23T12:37:29.617Z,6.30
2022-09-23T12:40:04.080Z,6.35
2022-09-23T12:42:32.214Z,6.97
2022-09-23T12:45:18.945Z,6.65
2022-09-23T12:47:46.983Z,6.40
2022-09-23T12:50:51.842Z,6.43
2022-09-23T12:53:35.251Z,7.05
2022-09-23T12:56:16.809Z,7.00
2022-09-23T12:58:44.730Z,7.53
2022-09-23T13:01:15.926Z,7.75
2022-09-23T13:03:52.491Z,6.97
2022-09-23T13:06:22.965Z,7.82
2022-09-23T13:08:54.212Z,6.60
2022-09-23T13:11:30.768Z,6.65
2022-09-23T13:14:05.348Z,7.05
2022-09-23T13:16:47.303Z,6.65
2022-09-23T13:19:27.313Z,7.10
2022-09-23T13:22:10.508Z,7.22
2022-09-23T13:24:55.061Z,7.80
2022-09-23T13:27:33.594Z,7.63
2022-09-23T13:30:25.139Z,7.47
2022-09-23T13:33:19.499Z,7.80
2022-09-23T13:35:50.996Z,7.28
2022-09-23T13:38:25.210Z,7.65
2022-09-23T13:41:03.961Z,7.35
2022-09-23T13:43:42.047Z,7.93
2022-09-23T13:46:31.195Z,6.72
2022-09-23T13:48:59.486Z,8.15
2022-09-23T13:51:34.843Z,7.18
2022-09-23T13:54:05.544Z,7.05
2022-09-23T13:56:34.417Z,7.13
2022-09-23T13:59:32.648Z,7.50
2022-09-23T14:02:13.095Z,7.15
2022-09-23T14:04:41.363Z,6.90
2022-09-23T14:07:15.065Z,7.18
2022-09-23T14:09:50.335Z,6.53
2022-09-23T14:12:18.704Z,7.03
2022-09-23T14:14:46.721Z,7.25
2022-09-23T14:17:19.751Z,7.10
2022-09-23T14:19:48.321Z,6.10
2022-09-23T14:22:28.043Z,7.55
2022-09-23T14:24:57.559Z,7.10
2022-09-23T14:27:33.979Z,6.80
2022-09-23T14:30:04.415Z,6.85
2022-09-23T14:32:35.551Z,6.60
2022-09-23T14:35:03.523Z,6.35
2022-09-23T14:37:37.581Z,7.25
2022-09-23T14:42:40.942Z,6.13
2022-09-23T14:47:44.017Z,7.07
2022-09-23T14:50:21.685Z,6.90
2022-09-23T14:52:52.802Z,6.80
2022-09-23T14:55:23.350Z,7.47
2022-09-23T14:58:04.747Z,7.00
2022-09-23T15:00:35.407Z,7.55
2022-09-23T15:03:12.365Z,7.32
2022-09-23T15:05:44.634Z,7.50
2022-09-23T15:08:19.717Z,7.10
2022-09-23T15:10:48.779Z,6.95
2022-09-23T15:13:21.972Z,6.30
2022-09-23T15:15:53.849Z,7.63
2022-09-23T15:18:34.566Z,7.20
2022-09-23T15:21:15.087Z,8.32
2022-09-23T15:23:47.311Z,7.50
2022-09-23T15:26:22.409Z,7.32
2022-09-23T15:28:52.505Z,7.82
2022-09-23T15:31:23.564Z,7.60
2022-09-23T15:33:52.396Z,7.70
2022-09-23T15:36:28.560Z,6.45
2022-09-23T15:39:03.085Z,7.35
2022-09-23T15:41:31.171Z,7.78
2022-09-23T15:44:03.931Z,7.10
2022-09-23T15:46:32.037Z,7.65
2022-09-23T15:49:04.492Z,8.77
2022-09-23T15:51:32.868Z,7.65
2022-09-23T15:54:03.695Z,8.57
2022-09-23T15:56:31.760Z,7.57
2022-09-23T15:58:59.811Z,7.05
2022-09-23T16:01:32.198Z,7.75
2022-09-23T16:04:00.408Z,7.35
2022-09-23T16:06:28.417Z,7.53
2022-09-23T16:08:56.517Z,6.18
2022-09-23T16:11:27.415Z,6.15
2022-09-23T16:13:55.425Z,6.35
2022-09-23T16:16:26.003Z,6.60
2022-09-23T16:18:56.903Z,7.13
2022-09-23T16:21:27.157Z,7.68
2022-09-23T16:23:55.603Z,6.82
2022-09-23T16:26:37.347Z,6.60
2022-09-23T16:29:05.359Z,6.70
2022-09-23T16:31:33.539Z,7.18
2022-09-23T16:34:01.598Z,6.38
2022-09-23T16:36:32.781Z,5.63
2022-09-23T16:39:08.121Z,6.30
2022-09-23T16:41:36.509Z,6.95
2022-09-23T16:44:06.497Z,6.47
2022-09-23T16:46:35.516Z,5.90
2022-09-23T16:49:03.696Z,6.07
2022-09-23T16:51:34.077Z,5.90
2022-09-23T16:54:11.055Z,6.13
2022-09-23T16:56:41.037Z,6.40
2022-09-23T16:59:09.650Z,6.00
2022-09-23T17:01:40.188Z,5.55
2022-09-23T17:04:08.820Z,5.72
2022-09-23T17:06:37.703Z,5.90
2022-09-23T17:09:06.422Z,5.80
2022-09-23T17:11:34.517Z,5.57
2022-09-23T17:14:08.004Z,6.75
2022-09-23T17:16:38.945Z,6.00
2022-09-23T17:19:11.847Z,6.10
2022-09-23T17:21:40.292Z,6.50
2022-09-23T17:24:08.355Z,6.15
2022-09-23T17:26:36.471Z,5.82
2022-09-23T17:29:04.673Z,5.88
2022-09-23T17:31:32.856Z,6.20
2022-09-23T17:34:00.896Z,5.78
2022-09-23T17:36:31.800Z,6.57
2022-09-23T17:38:59.804Z,5.75
2022-09-23T17:41:27.797Z,5.55
2022-09-23T17:43:56.868Z,5.80
2022-09-23T17:46:25.041Z,5.85
2022-09-23T17:48:53.003Z,6.43
2022-09-23T17:51:21.024Z,6.70
2022-09-23T17:53:49.984Z,5.63
2022-09-23T17:56:23.110Z,6.03
2022-09-23T17:58:51.433Z,5.90
2022-09-23T18:01:27.441Z,6.60
2022-09-23T18:04:02.658Z,6.32
2022-09-23T18:06:35.078Z,5.78
2022-09-23T18:09:04.614Z,5.63
2022-09-23T18:11:35.983Z,6.05
2022-09-23T18:14:08.337Z,5.88
2022-09-23T18:16:39.137Z,5.70
2022-09-23T18:19:08.836Z,5.43
2022-09-23T18:21:44.526Z,5.78
2022-09-23T18:24:32.800Z,5.60
2022-09-23T18:27:01.451Z,5.82
2022-09-23T18:29:29.619Z,5.80
2022-09-23T18:31:57.698Z,5.97
2022-09-23T18:34:25.769Z,5.68
2022-09-23T18:36:53.769Z,6.38
2022-09-23T18:39:21.964Z,5.80
2022-09-23T18:41:52.880Z,5.32
2022-09-23T18:44:20.888Z,6.03
2022-09-23T18:46:48.890Z,5.90
2022-09-23T18:49:17.783Z,5.95
2022-09-23T18:51:58.909Z,5.53
2022-09-23T18:54:28.581Z,5.70
2022-09-23T18:57:00.010Z,6.00
2022-09-23T18:59:28.730Z,5.63
2022-09-23T19:01:57.688Z,6.43
2022-09-23T19:04:27.563Z,5.90
2022-09-23T19:06:58.204Z,6.43
2022-09-23T19:09:26.317Z,6.05
2022-09-23T19:11:54.410Z,6.00
2022-09-23T19:14:22.440Z,6.30
2022-09-23T19:16:50.416Z,5.13
2022-09-23T19:19:21.288Z,5.55
2022-09-23T19:21:49.360Z,5.68
2022-09-23T19:24:20.343Z,5.68
2022-09-23T19:26:48.410Z,6.40
2022-09-23T19:29:20.263Z,6.13
2022-09-23T19:31:51.735Z,6.60
2022-09-23T19:34:21.827Z,7.35
2022-09-23T19:36:49.979Z,7.25
2022-09-23T19:39:20.344Z,6.30
2022-09-23T19:41:49.039Z,6.93
2022-09-23T19:44:17.186Z,6.35
2022-09-23T19:46:46.332Z,5.93
2022-09-23T19:49:14.486Z,6.30
2022-09-23T19:51:42.513Z,5.93
2022-09-23T19:54:10.734Z,6.75
2022-09-23T19:56:38.810Z,6.30
2022-09-23T19:59:07.412Z,5.15
2022-09-23T20:01:36.259Z,5.72
2022-09-23T20:04:05.382Z,5.60
2022-09-23T20:06:35.467Z,5.72
2022-09-23T20:09:06.414Z,5.10
2022-09-23T20:11:34.390Z,5.53
2022-09-23T20:14:06.431Z,6.47
2022-09-23T20:16:39.238Z,5.30
2022-09-23T20:19:07.296Z,4.97
2022-09-23T20:21:35.785Z,5.47
2022-09-23T20:24:04.867Z,5.20
2022-09-23T20:26:33.207Z,5.32
2022-09-23T20:29:01.218Z,8.15
2022-09-23T20:31:29.772Z,4.88
2022-09-23T20:34:05.363Z,4.30
2022-09-23T20:36:33.775Z,6.05
2022-09-23T20:39:04.079Z,4.82
2022-09-23T20:41:37.036Z,5.25
2022-09-23T20:44:11.675Z,5.70
2022-09-23T20:46:46.964Z,8.85
2022-09-23T20:49:18.877Z,8.23
2022-09-23T20:51:49.101Z,4.18
2022-09-23T20:54:22.841Z,3.75
2022-09-23T20:56:50.910Z,4.25
2022-09-23T20:59:18.905Z,4.13
2022-09-23T21:01:47.103Z,3.83
2022-09-23T21:04:17.814Z,3.65
2022-09-23T21:06:48.543Z,3.08
2022-09-23T21:09:16.540Z,3.92
2022-09-23T21:11:44.669Z,3.38
2022-09-23T21:14:12.654Z,3.65
2022-09-23T21:16:43.614Z,3.17
2022-09-23T21:19:12.162Z,4.32
2022-09-23T21:21:40.194Z,4.07
2022-09-23T21:24:38.803Z,5.63
2022-09-23T21:26:58.926Z,6.05
2022-09-23T21:29:26.974Z,3.47
2022-09-23T21:31:55.007Z,2.80
2022-09-23T21:34:23.106Z,2.90
2022-09-23T21:36:51.147Z,2.72
2022-09-23T21:39:19.127Z,2.72
2022-09-23T21:41:47.161Z,3.58
2022-09-23T21:44:17.626Z,5.00
2022-09-23T21:46:45.728Z,4.70
2022-09-23T21:49:16.726Z,3.95
2022-09-23T21:51:47.142Z,4.18
2022-09-23T21:54:16.965Z,4.28
2022-09-23T21:56:47.413Z,3.85
2022-09-23T21:59:15.415Z,4.43
2022-09-23T22:01:53.869Z,4.50
2022-09-23T22:04:24.796Z,4.07
2022-09-23T22:06:52.873Z,4.10
2022-09-23T22:09:22.069Z,4.80
2022-09-23T22:11:50.188Z,3.22
2022-09-23T22:14:20.199Z,3.35
2022-09-23T22:16:50.850Z,3.60
2022-09-23T22:19:21.777Z,4.50
2022-09-23T22:21:52.670Z,4.65
2022-09-23T22:24:20.995Z,3.55
2022-09-23T22:26:48.996Z,4.82
2022-09-23T22:29:17.579Z,4.13
2022-09-23T22:31:46.036Z,4.63
2022-09-23T22:34:47.478Z,3.90
2022-09-23T22:37:05.932Z,3.03
2022-09-23T22:39:33.959Z,2.83
2022-09-23T22:42:01.967Z,3.03
2022-09-23T22:44:34.750Z,2.50
2022-09-23T22:47:04.274Z,2.70
2022-09-23T22:49:35.121Z,2.55
2022-09-23T22:52:03.959Z,2.50
2022-09-23T22:54:34.638Z,2.92
2022-09-23T22:57:05.638Z,2.33
2022-09-23T22:59:36.582Z,2.70
2022-09-23T23:02:10.001Z,3.38
2022-09-23T23:04:38.005Z,2.47
2022-09-23T23:07:08.695Z,2.30
2022-09-23T23:09:37.004Z,2.63
2022-09-23T23:12:05.314Z,2.72
2022-09-23T23:14:33.402Z,2.70
2022-09-23T23:17:01.506Z,2.75
2022-09-23T23:19:32.377Z,2.90
2022-09-23T23:22:00.400Z,3.78
2022-09-23T23:24:28.949Z,3.75
2022-09-23T23:26:57.103Z,5.13
2022-09-23T23:29:25.100Z,2.47
2022-09-23T23:31:55.766Z,3.60
2022-09-23T23:34:24.033Z,2.50
2022-09-23T23:36:53.733Z,2.50
2022-09-23T23:39:23.219Z,3.00
2022-09-23T23:41:58.578Z,2.28
2022-09-23T23:44:27.493Z,2.50
2022-09-23T23:46:55.793Z,3.17
2022-09-23T23:49:23.966Z,2.20
2022-09-23T23:51:54.921Z,3.17
2022-09-23T23:54:22.989Z,3.60
2022-09-23T23:56:53.864Z,2.40
2022-09-23T23:59:22.014Z,3.97
